Aérodrome :
LOGIN :

S'inscrire | Disclaimer

   EN    FR    IT 

 










Légende :    VFR   VFR Marginal   IFR   IFR Intensif   IFR Très Intensif
Visi : 
Plafond : 
>= 8 km
>= 3000ft
5 à 8 km
1000 à 3000 ft
1500m à 5 km
500 à 1000 ft
800 à 1500m
200 à 500 ft
< 800m
< 200 ft
Symboles :   Orages  Brouillard  Fortes neiges  Fortes précipitations  Vent > 20 kt
SIGMETs :   Divers  Orages  Givrage  Turbulence  Onde Orograph.  Cendres Volcan.







- Altitude de l'aérodrome : 30 ft
- Code IATA : CFN


EIDL - Donegal

DERNIER METAR :
  • 211830Z 18015KT 9999 -RA FEW025 18/17 Q1005

METARs EXPIRÉS :
  • 211800Z 18017KT 9999 -RA FEW019 18/17 Q1005
  • 211730Z 19016KT 9999 -RA SCT017 BKN023 OVC033 18/16 Q1006
  • 211700Z 19016KT 9999 -RA FEW020 BKN028 OVC037 18/17 Q1006
  • 211630Z 19018KT 9999 -RA BKN023 OVC039 18/17 Q1006

TAF TAF EIDL
Valide du 21 à 18h jusqu'au 21 à 21h UTC


211700Z 2118/2121 19017G28KT 9999 SCT015 BKN020
BECMG 2118/2121 21012KT
TEMPO 2118/2121 5000 -RA BKN012 SCT018CB
PROB40
TEMPO 2118/2121 3000 RA BKN007
Pas de NOTAMs connus pour ce terrain.



MET'MAP, la Météo Aéronautique d'un coup d'oeil ! - Copyright ORBIFLY Décembre 2007 - Disclaimer

ORBIFLY MET'MAP TEAM :

Programmation & Développement : Alexandra Zaïnal
Conception & Développement : Baudouin d'Aumeries
Co-Programmation & Développement : Marc-Olivier Méhu
Soutien technique & logistique : Manuel Goepfert

Contact : metmap@orbifly.com




SOURCES & CREDITS :

   NOAA